sensor_id;sensor_type;location;lat;lon;timestamp;temperature;humidity
30280;DHT22;17097;50.916;5.344;2023-07-30T00:02:03;19.00;99.90
30280;DHT22;17097;50.916;5.344;2023-07-30T00:04:29;19.00;99.90
30280;DHT22;17097;50.916;5.344;2023-07-30T00:06:54;19.00;99.90
30280;DHT22;17097;50.916;5.344;2023-07-30T00:09:20;19.00;99.90
30280;DHT22;17097;50.916;5.344;2023-07-30T00:11:46;19.00;99.90
30280;DHT22;17097;50.916;5.344;2023-07-30T00:14:12;19.10;99.90
30280;DHT22;17097;50.916;5.344;2023-07-30T00:16:37;19.10;99.90
30280;DHT22;17097;50.916;5.344;2023-07-30T00:19:03;19.10;99.90
30280;DHT22;17097;50.916;5.344;2023-07-30T00:21:29;19.10;99.90
30280;DHT22;17097;50.916;5.344;2023-07-30T00:23:54;19.10;99.90
30280;DHT22;17097;50.916;5.344;2023-07-30T00:26:22;19.00;99.90
30280;DHT22;17097;50.916;5.344;2023-07-30T00:28:51;19.10;99.90
30280;DHT22;17097;50.916;5.344;2023-07-30T00:31:17;19.10;99.90
30280;DHT22;17097;50.916;5.344;2023-07-30T00:33:42;19.00;99.90
30280;DHT22;17097;50.916;5.344;2023-07-30T00:36:08;19.20;99.90
30280;DHT22;17097;50.916;5.344;2023-07-30T00:38:34;19.20;99.90
30280;DHT22;17097;50.916;5.344;2023-07-30T00:40:59;18.90;99.90
30280;DHT22;17097;50.916;5.344;2023-07-30T00:43:25;18.90;99.90
30280;DHT22;17097;50.916;5.344;2023-07-30T00:45:50;18.90;99.90
30280;DHT22;17097;50.916;5.344;2023-07-30T00:48:16;18.90;99.90
30280;DHT22;17097;50.916;5.344;2023-07-30T00:50:42;19.00;99.90
30280;DHT22;17097;50.916;5.344;2023-07-30T00:53:09;19.00;99.90
30280;DHT22;17097;50.916;5.344;2023-07-30T00:55:36;19.00;99.90
30280;DHT22;17097;50.916;5.344;2023-07-30T00:58:02;19.00;99.90
30280;DHT22;17097;50.916;5.344;2023-07-30T01:00:33;19.00;99.90
30280;DHT22;17097;50.916;5.344;2023-07-30T01:02:59;19.00;99.90
30280;DHT22;17097;50.916;5.344;2023-07-30T01:05:26;19.00;99.90
30280;DHT22;17097;50.916;5.344;2023-07-30T01:07:51;18.90;99.90
30280;DHT22;17097;50.916;5.344;2023-07-30T01:10:17;19.00;99.90
30280;DHT22;17097;50.916;5.344;2023-07-30T01:12:44;19.00;99.90
30280;DHT22;17097;50.916;5.344;2023-07-30T01:15:10;18.90;99.90
30280;DHT22;17097;50.916;5.344;2023-07-30T01:17:41;18.90;99.90
30280;DHT22;17097;50.916;5.344;2023-07-30T01:20:07;18.90;99.90
30280;DHT22;17097;50.916;5.344;2023-07-30T01:22:35;18.90;99.90
30280;DHT22;17097;50.916;5.344;2023-07-30T01:25:03;18.90;99.90
30280;DHT22;17097;50.916;5.344;2023-07-30T01:27:36;18.90;99.90
30280;DHT22;17097;50.916;5.344;2023-07-30T01:30:43;19.00;99.90
30280;DHT22;17097;50.916;5.344;2023-07-30T01:33:03;18.80;99.90
30280;DHT22;17097;50.916;5.344;2023-07-30T01:35:30;18.80;99.90
30280;DHT22;17097;50.916;5.344;2023-07-30T01:37:56;18.70;99.90
30280;DHT22;17097;50.916;5.344;2023-07-30T01:40:22;18.60;99.90
30280;DHT22;17097;50.916;5.344;2023-07-30T01:42:49;18.60;99.90
30280;DHT22;17097;50.916;5.344;2023-07-30T01:45:15;18.50;99.90
30280;DHT22;17097;50.916;5.344;2023-07-30T01:47:41;18.60;99.90
30280;DHT22;17097;50.916;5.344;2023-07-30T01:50:09;18.60;99.90
30280;DHT22;17097;50.916;5.344;2023-07-30T01:52:35;18.50;99.90
30280;DHT22;17097;50.916;5.344;2023-07-30T01:55:00;18.40;99.90
30280;DHT22;17097;50.916;5.344;2023-07-30T01:57:26;18.40;99.90
30280;DHT22;17097;50.916;5.344;2023-07-30T01:59:55;18.50;99.90
30280;DHT22;17097;50.916;5.344;2023-07-30T02:02:20;18.60;99.90
30280;DHT22;17097;50.916;5.344;2023-07-30T02:04:46;18.50;99.90
30280;DHT22;17097;50.916;5.344;2023-07-30T02:07:11;18.50;99.90
30280;DHT22;17097;50.916;5.344;2023-07-30T02:09:37;18.50;99.90
30280;DHT22;17097;50.916;5.344;2023-07-30T02:12:03;18.50;99.90
30280;DHT22;17097;50.916;5.344;2023-07-30T02:14:28;18.50;99.90
30280;DHT22;17097;50.916;5.344;2023-07-30T02:16:54;18.50;99.90
30280;DHT22;17097;50.916;5.344;2023-07-30T02:19:20;18.40;99.90
30280;DHT22;17097;50.916;5.344;2023-07-30T02:21:45;18.50;99.90
30280;DHT22;17097;50.916;5.344;2023-07-30T02:24:15;18.50;99.90
30280;DHT22;17097;50.916;5.344;2023-07-30T02:26:41;18.60;99.90
30280;DHT22;17097;50.916;5.344;2023-07-30T02:29:06;18.30;99.90
30280;DHT22;17097;50.916;5.344;2023-07-30T02:31:32;18.40;99.90
30280;DHT22;17097;50.916;5.344;2023-07-30T02:33:58;18.40;99.90
30280;DHT22;17097;50.916;5.344;2023-07-30T02:36:24;18.30;99.90
30280;DHT22;17097;50.916;5.344;2023-07-30T02:38:50;18.40;99.90
30280;DHT22;17097;50.916;5.344;2023-07-30T02:41:16;18.40;99.90
30280;DHT22;17097;50.916;5.344;2023-07-30T02:43:42;18.30;99.90
30280;DHT22;17097;50.916;5.344;2023-07-30T02:46:10;18.30;99.90
30280;DHT22;17097;50.916;5.344;2023-07-30T02:48:36;18.20;99.90
30280;DHT22;17097;50.916;5.344;2023-07-30T02:51:04;18.10;99.90
30280;DHT22;17097;50.916;5.344;2023-07-30T02:53:29;18.10;99.90
30280;DHT22;17097;50.916;5.344;2023-07-30T02:55:59;18.00;99.90
30280;DHT22;17097;50.916;5.344;2023-07-30T02:58:27;18.00;99.90
30280;DHT22;17097;50.916;5.344;2023-07-30T03:00:53;18.00;99.90
30280;DHT22;17097;50.916;5.344;2023-07-30T03:03:21;17.80;99.90
30280;DHT22;17097;50.916;5.344;2023-07-30T03:05:46;17.80;99.90
30280;DHT22;17097;50.916;5.344;2023-07-30T03:08:12;17.80;99.90
30280;DHT22;17097;50.916;5.344;2023-07-30T03:10:38;17.80;99.90
30280;DHT22;17097;50.916;5.344;2023-07-30T03:13:04;17.80;99.90
30280;DHT22;17097;50.916;5.344;2023-07-30T03:15:30;17.70;99.90
30280;DHT22;17097;50.916;5.344;2023-07-30T03:17:55;17.80;99.90
30280;DHT22;17097;50.916;5.344;2023-07-30T03:20:21;17.60;99.90
30280;DHT22;17097;50.916;5.344;2023-07-30T03:22:46;17.60;99.90
30280;DHT22;17097;50.916;5.344;2023-07-30T03:25:14;17.50;99.90
30280;DHT22;17097;50.916;5.344;2023-07-30T03:27:40;17.50;99.90
30280;DHT22;17097;50.916;5.344;2023-07-30T03:30:06;17.50;99.90
30280;DHT22;17097;50.916;5.344;2023-07-30T03:32:31;17.40;99.90
30280;DHT22;17097;50.916;5.344;2023-07-30T03:34:57;17.40;99.90
30280;DHT22;17097;50.916;5.344;2023-07-30T03:37:23;17.30;99.90
30280;DHT22;17097;50.916;5.344;2023-07-30T03:39:48;17.20;99.90
30280;DHT22;17097;50.916;5.344;2023-07-30T03:42:14;17.10;99.90
30280;DHT22;17097;50.916;5.344;2023-07-30T03:44:39;17.10;99.90
30280;DHT22;17097;50.916;5.344;2023-07-30T03:47:05;17.10;99.90
30280;DHT22;17097;50.916;5.344;2023-07-30T03:49:31;17.10;99.90
30280;DHT22;17097;50.916;5.344;2023-07-30T03:51:56;17.10;99.90
30280;DHT22;17097;50.916;5.344;2023-07-30T03:54:22;17.10;99.90
30280;DHT22;17097;50.916;5.344;2023-07-30T03:56:50;17.00;99.90
30280;DHT22;17097;50.916;5.344;2023-07-30T03:59:15;17.00;99.90
30280;DHT22;17097;50.916;5.344;2023-07-30T04:01:43;16.90;99.90
30280;DHT22;17097;50.916;5.344;2023-07-30T04:04:11;16.80;99.90
30280;DHT22;17097;50.916;5.344;2023-07-30T04:06:37;16.80;99.90
30280;DHT22;17097;50.916;5.344;2023-07-30T04:09:02;16.70;99.90
30280;DHT22;17097;50.916;5.344;2023-07-30T04:11:28;16.60;99.90
30280;DHT22;17097;50.916;5.344;2023-07-30T04:13:54;16.60;99.90
30280;DHT22;17097;50.916;5.344;2023-07-30T04:16:20;16.70;99.90
30280;DHT22;17097;50.916;5.344;2023-07-30T04:18:45;16.70;99.90
30280;DHT22;17097;50.916;5.344;2023-07-30T04:21:13;16.70;99.90
30280;DHT22;17097;50.916;5.344;2023-07-30T04:23:40;16.70;99.90
30280;DHT22;17097;50.916;5.344;2023-07-30T04:26:06;16.70;99.90
30280;DHT22;17097;50.916;5.344;2023-07-30T04:28:32;16.70;99.90
30280;DHT22;17097;50.916;5.344;2023-07-30T04:30:58;16.60;99.90
30280;DHT22;17097;50.916;5.344;2023-07-30T04:33:24;16.60;99.90
30280;DHT22;17097;50.916;5.344;2023-07-30T04:35:51;16.70;99.90
30280;DHT22;17097;50.916;5.344;2023-07-30T04:38:19;16.70;99.90
30280;DHT22;17097;50.916;5.344;2023-07-30T04:40:45;16.70;99.90
30280;DHT22;17097;50.916;5.344;2023-07-30T04:43:11;16.60;99.90
30280;DHT22;17097;50.916;5.344;2023-07-30T04:45:36;16.70;99.90
30280;DHT22;17097;50.916;5.344;2023-07-30T04:48:04;16.70;99.90
30280;DHT22;17097;50.916;5.344;2023-07-30T04:50:32;16.70;99.90
30280;DHT22;17097;50.916;5.344;2023-07-30T04:52:58;16.80;99.90
30280;DHT22;17097;50.916;5.344;2023-07-30T04:55:24;16.90;99.90
30280;DHT22;17097;50.916;5.344;2023-07-30T04:57:52;16.90;99.90
30280;DHT22;17097;50.916;5.344;2023-07-30T05:00:18;17.00;99.90
30280;DHT22;17097;50.916;5.344;2023-07-30T05:02:46;17.00;99.90
30280;DHT22;17097;50.916;5.344;2023-07-30T05:05:11;17.00;99.90
30280;DHT22;17097;50.916;5.344;2023-07-30T05:07:37;16.90;99.90
30280;DHT22;17097;50.916;5.344;2023-07-30T05:10:03;16.90;99.90
30280;DHT22;17097;50.916;5.344;2023-07-30T05:12:34;16.80;99.90
30280;DHT22;17097;50.916;5.344;2023-07-30T05:14:59;17.00;99.90
30280;DHT22;17097;50.916;5.344;2023-07-30T05:17:25;17.10;99.90
30280;DHT22;17097;50.916;5.344;2023-07-30T05:19:51;17.20;99.90
30280;DHT22;17097;50.916;5.344;2023-07-30T05:22:16;17.30;99.90
30280;DHT22;17097;50.916;5.344;2023-07-30T05:24:42;17.20;99.90
30280;DHT22;17097;50.916;5.344;2023-07-30T05:27:08;17.20;99.90
30280;DHT22;17097;50.916;5.344;2023-07-30T05:29:33;17.30;99.90
30280;DHT22;17097;50.916;5.344;2023-07-30T05:32:01;17.30;99.90
30280;DHT22;17097;50.916;5.344;2023-07-30T05:34:27;17.30;99.90
30280;DHT22;17097;50.916;5.344;2023-07-30T05:36:52;17.20;99.90
30280;DHT22;17097;50.916;5.344;2023-07-30T05:39:18;17.20;99.90
30280;DHT22;17097;50.916;5.344;2023-07-30T05:41:43;17.20;99.90
30280;DHT22;17097;50.916;5.344;2023-07-30T05:44:09;17.40;99.90
30280;DHT22;17097;50.916;5.344;2023-07-30T05:46:35;17.40;99.90
30280;DHT22;17097;50.916;5.344;2023-07-30T05:49:00;17.40;99.90
30280;DHT22;17097;50.916;5.344;2023-07-30T05:51:26;17.50;99.90
30280;DHT22;17097;50.916;5.344;2023-07-30T05:53:51;17.60;99.90
30280;DHT22;17097;50.916;5.344;2023-07-30T05:56:19;17.70;99.90
30280;DHT22;17097;50.916;5.344;2023-07-30T05:58:47;17.80;99.90
30280;DHT22;17097;50.916;5.344;2023-07-30T06:01:13;17.90;99.90
30280;DHT22;17097;50.916;5.344;2023-07-30T06:03:38;18.10;99.90
30280;DHT22;17097;50.916;5.344;2023-07-30T06:06:04;18.20;99.90
30280;DHT22;17097;50.916;5.344;2023-07-30T06:08:30;18.10;99.90
30280;DHT22;17097;50.916;5.344;2023-07-30T06:10:59;18.00;99.90
30280;DHT22;17097;50.916;5.344;2023-07-30T06:13:25;18.00;99.90
30280;DHT22;17097;50.916;5.344;2023-07-30T06:15:51;18.00;99.90
30280;DHT22;17097;50.916;5.344;2023-07-30T06:18:16;18.10;99.90
30280;DHT22;17097;50.916;5.344;2023-07-30T06:20:45;18.20;99.90
30280;DHT22;17097;50.916;5.344;2023-07-30T06:23:10;18.30;99.90
30280;DHT22;17097;50.916;5.344;2023-07-30T06:25:36;18.40;99.90
30280;DHT22;17097;50.916;5.344;2023-07-30T06:28:01;18.50;99.90
30280;DHT22;17097;50.916;5.344;2023-07-30T06:30:28;18.20;99.90
30280;DHT22;17097;50.916;5.344;2023-07-30T06:32:54;18.10;99.90
30280;DHT22;17097;50.916;5.344;2023-07-30T06:35:19;18.00;99.90
30280;DHT22;17097;50.916;5.344;2023-07-30T06:37:45;18.00;99.90
30280;DHT22;17097;50.916;5.344;2023-07-30T06:40:11;18.10;99.90
30280;DHT22;17097;50.916;5.344;2023-07-30T06:42:36;18.00;99.90
30280;DHT22;17097;50.916;5.344;2023-07-30T06:45:02;18.10;99.90
30280;DHT22;17097;50.916;5.344;2023-07-30T06:47:30;18.20;99.90
30280;DHT22;17097;50.916;5.344;2023-07-30T06:49:56;18.20;99.90
30280;DHT22;17097;50.916;5.344;2023-07-30T06:52:21;18.20;99.90
30280;DHT22;17097;50.916;5.344;2023-07-30T06:54:47;18.10;99.90
30280;DHT22;17097;50.916;5.344;2023-07-30T06:57:13;18.20;99.90
30280;DHT22;17097;50.916;5.344;2023-07-30T06:59:38;18.20;99.90
30280;DHT22;17097;50.916;5.344;2023-07-30T07:02:04;18.20;99.90
30280;DHT22;17097;50.916;5.344;2023-07-30T07:04:32;18.30;99.90
30280;DHT22;17097;50.916;5.344;2023-07-30T07:06:58;18.40;99.90
30280;DHT22;17097;50.916;5.344;2023-07-30T07:09:25;18.30;99.90
30280;DHT22;17097;50.916;5.344;2023-07-30T07:11:54;18.50;99.90
30280;DHT22;17097;50.916;5.344;2023-07-30T07:14:19;18.60;99.90
30280;DHT22;17097;50.916;5.344;2023-07-30T07:16:45;18.70;99.90
30280;DHT22;17097;50.916;5.344;2023-07-30T07:19:13;18.80;99.90
30280;DHT22;17097;50.916;5.344;2023-07-30T07:21:38;18.80;99.90
30280;DHT22;17097;50.916;5.344;2023-07-30T07:24:04;18.80;99.90
30280;DHT22;17097;50.916;5.344;2023-07-30T07:26:32;18.60;99.90
30280;DHT22;17097;50.916;5.344;2023-07-30T07:28:58;18.60;99.90
30280;DHT22;17097;50.916;5.344;2023-07-30T07:31:23;18.50;99.90
30280;DHT22;17097;50.916;5.344;2023-07-30T07:33:49;18.60;99.90
30280;DHT22;17097;50.916;5.344;2023-07-30T07:36:15;18.70;99.90
30280;DHT22;17097;50.916;5.344;2023-07-30T07:38:41;18.80;99.90
30280;DHT22;17097;50.916;5.344;2023-07-30T07:41:06;18.90;99.90
30280;DHT22;17097;50.916;5.344;2023-07-30T07:43:34;19.00;99.90
30280;DHT22;17097;50.916;5.344;2023-07-30T07:46:00;19.00;99.90
30280;DHT22;17097;50.916;5.344;2023-07-30T07:48:26;19.10;99.90
30280;DHT22;17097;50.916;5.344;2023-07-30T07:50:51;19.10;99.90
30280;DHT22;17097;50.916;5.344;2023-07-30T07:53:17;19.30;99.90
30280;DHT22;17097;50.916;5.344;2023-07-30T07:55:42;19.50;99.90
30280;DHT22;17097;50.916;5.344;2023-07-30T07:58:08;19.60;99.90
30280;DHT22;17097;50.916;5.344;2023-07-30T08:00:34;19.80;99.90
30280;DHT22;17097;50.916;5.344;2023-07-30T08:02:59;20.00;99.90
30280;DHT22;17097;50.916;5.344;2023-07-30T08:05:25;20.00;99.90
30280;DHT22;17097;50.916;5.344;2023-07-30T08:07:51;19.90;99.90
30280;DHT22;17097;50.916;5.344;2023-07-30T08:10:17;19.90;99.90
30280;DHT22;17097;50.916;5.344;2023-07-30T08:12:43;20.10;99.90
30280;DHT22;17097;50.916;5.344;2023-07-30T08:15:09;20.10;99.90
30280;DHT22;17097;50.916;5.344;2023-07-30T08:17:37;20.20;99.90
30280;DHT22;17097;50.916;5.344;2023-07-30T08:20:03;19.80;99.90
30280;DHT22;17097;50.916;5.344;2023-07-30T08:22:29;19.90;99.90
30280;DHT22;17097;50.916;5.344;2023-07-30T08:24:57;20.00;99.90
30280;DHT22;17097;50.916;5.344;2023-07-30T08:27:23;20.10;99.90
30280;DHT22;17097;50.916;5.344;2023-07-30T08:29:48;20.30;99.90
30280;DHT22;17097;50.916;5.344;2023-07-30T08:32:14;20.60;99.90
30280;DHT22;17097;50.916;5.344;2023-07-30T08:34:39;20.80;99.90
30280;DHT22;17097;50.916;5.344;2023-07-30T08:37:05;20.60;99.90
30280;DHT22;17097;50.916;5.344;2023-07-30T08:39:31;20.70;99.90
30280;DHT22;17097;50.916;5.344;2023-07-30T08:41:56;20.70;99.90
30280;DHT22;17097;50.916;5.344;2023-07-30T08:44:23;20.90;99.90
30280;DHT22;17097;50.916;5.344;2023-07-30T08:46:49;20.80;99.90
30280;DHT22;17097;50.916;5.344;2023-07-30T08:49:15;20.90;99.90
30280;DHT22;17097;50.916;5.344;2023-07-30T08:51:41;20.90;99.90
30280;DHT22;17097;50.916;5.344;2023-07-30T08:54:09;21.10;99.90
30280;DHT22;17097;50.916;5.344;2023-07-30T08:56:36;21.50;99.90
30280;DHT22;17097;50.916;5.344;2023-07-30T08:59:05;21.60;99.90
30280;DHT22;17097;50.916;5.344;2023-07-30T09:01:36;21.30;99.90
30280;DHT22;17097;50.916;5.344;2023-07-30T09:04:02;21.70;99.90
30280;DHT22;17097;50.916;5.344;2023-07-30T09:06:30;21.80;99.90
30280;DHT22;17097;50.916;5.344;2023-07-30T09:08:57;22.10;99.90
30280;DHT22;17097;50.916;5.344;2023-07-30T09:11:26;22.20;99.90
30280;DHT22;17097;50.916;5.344;2023-07-30T09:13:54;22.10;99.90
30280;DHT22;17097;50.916;5.344;2023-07-30T09:16:24;22.20;99.90
30280;DHT22;17097;50.916;5.344;2023-07-30T09:18:50;22.40;99.90
30280;DHT22;17097;50.916;5.344;2023-07-30T09:21:18;22.30;99.90
30280;DHT22;17097;50.916;5.344;2023-07-30T09:23:46;22.40;99.90
30280;DHT22;17097;50.916;5.344;2023-07-30T09:26:13;22.30;99.90
30280;DHT22;17097;50.916;5.344;2023-07-30T09:28:39;22.10;99.90
30280;DHT22;17097;50.916;5.344;2023-07-30T09:31:06;22.00;99.90
30280;DHT22;17097;50.916;5.344;2023-07-30T09:33:33;21.80;99.90
30280;DHT22;17097;50.916;5.344;2023-07-30T09:36:03;21.60;99.90
30280;DHT22;17097;50.916;5.344;2023-07-30T09:38:32;21.60;99.90
30280;DHT22;17097;50.916;5.344;2023-07-30T09:41:04;21.60;99.90
30280;DHT22;17097;50.916;5.344;2023-07-30T09:43:34;21.60;99.90
30280;DHT22;17097;50.916;5.344;2023-07-30T09:46:05;21.50;99.90
30280;DHT22;17097;50.916;5.344;2023-07-30T09:48:33;21.50;99.90
30280;DHT22;17097;50.916;5.344;2023-07-30T09:50:59;21.60;99.90
30280;DHT22;17097;50.916;5.344;2023-07-30T09:53:29;21.60;99.90
30280;DHT22;17097;50.916;5.344;2023-07-30T09:55:55;21.40;99.90
30280;DHT22;17097;50.916;5.344;2023-07-30T09:58:23;21.30;99.90
30280;DHT22;17097;50.916;5.344;2023-07-30T10:00:50;21.30;99.90
30280;DHT22;17097;50.916;5.344;2023-07-30T10:03:18;20.80;99.90
30280;DHT22;17097;50.916;5.344;2023-07-30T10:05:47;21.00;99.90
30280;DHT22;17097;50.916;5.344;2023-07-30T10:08:24;21.00;99.90
30280;DHT22;17097;50.916;5.344;2023-07-30T10:10:52;20.90;99.90
30280;DHT22;17097;50.916;5.344;2023-07-30T10:13:19;20.90;99.90
30280;DHT22;17097;50.916;5.344;2023-07-30T10:15:47;20.90;99.90
30280;DHT22;17097;50.916;5.344;2023-07-30T10:18:13;21.00;99.90
30280;DHT22;17097;50.916;5.344;2023-07-30T10:20:39;21.00;99.90
30280;DHT22;17097;50.916;5.344;2023-07-30T10:23:07;20.80;99.90
30280;DHT22;17097;50.916;5.344;2023-07-30T10:25:48;20.50;99.90
30280;DHT22;17097;50.916;5.344;2023-07-30T10:31:04;20.00;99.90
30280;DHT22;17097;50.916;5.344;2023-07-30T10:33:50;19.80;99.90
30280;DHT22;17097;50.916;5.344;2023-07-30T10:36:31;19.40;99.90
30280;DHT22;17097;50.916;5.344;2023-07-30T10:39:12;19.20;99.90
30280;DHT22;17097;50.916;5.344;2023-07-30T10:41:38;19.00;99.90
30280;DHT22;17097;50.916;5.344;2023-07-30T10:44:04;19.20;99.90
30280;DHT22;17097;50.916;5.344;2023-07-30T10:46:30;19.10;99.90
30280;DHT22;17097;50.916;5.344;2023-07-30T10:48:58;19.20;99.90
30280;DHT22;17097;50.916;5.344;2023-07-30T10:51:23;19.40;99.90
30280;DHT22;17097;50.916;5.344;2023-07-30T10:53:50;19.70;99.90
30280;DHT22;17097;50.916;5.344;2023-07-30T10:56:17;19.60;99.90
30280;DHT22;17097;50.916;5.344;2023-07-30T10:58:49;19.70;99.90
30280;DHT22;17097;50.916;5.344;2023-07-30T11:01:15;19.70;99.90
30280;DHT22;17097;50.916;5.344;2023-07-30T11:03:41;19.60;99.90
30280;DHT22;17097;50.916;5.344;2023-07-30T11:06:06;19.70;99.90
30280;DHT22;17097;50.916;5.344;2023-07-30T11:08:37;19.50;99.90
30280;DHT22;17097;50.916;5.344;2023-07-30T11:11:03;19.70;99.90
30280;DHT22;17097;50.916;5.344;2023-07-30T11:13:30;19.50;99.90
30280;DHT22;17097;50.916;5.344;2023-07-30T11:16:00;19.70;99.90
30280;DHT22;17097;50.916;5.344;2023-07-30T11:18:31;19.60;99.90
30280;DHT22;17097;50.916;5.344;2023-07-30T11:23:38;20.10;99.90
30280;DHT22;17097;50.916;5.344;2023-07-30T11:26:06;20.30;99.90
30280;DHT22;17097;50.916;5.344;2023-07-30T11:33:34;21.00;99.90
30280;DHT22;17097;50.916;5.344;2023-07-30T11:36:01;21.30;99.90
30280;DHT22;17097;50.916;5.344;2023-07-30T11:38:31;21.70;99.90
30280;DHT22;17097;50.916;5.344;2023-07-30T11:40:57;22.00;99.90
30280;DHT22;17097;50.916;5.344;2023-07-30T11:43:23;22.40;99.90
30280;DHT22;17097;50.916;5.344;2023-07-30T11:45:49;22.60;99.90
30280;DHT22;17097;50.916;5.344;2023-07-30T11:48:30;23.10;99.90
30280;DHT22;17097;50.916;5.344;2023-07-30T11:50:56;23.00;99.90
30280;DHT22;17097;50.916;5.344;2023-07-30T11:53:22;23.00;99.90
30280;DHT22;17097;50.916;5.344;2023-07-30T11:55:49;23.00;99.90
30280;DHT22;17097;50.916;5.344;2023-07-30T11:58:15;23.10;99.90
30280;DHT22;17097;50.916;5.344;2023-07-30T12:00:43;23.00;99.90
30280;DHT22;17097;50.916;5.344;2023-07-30T12:03:12;22.70;99.90
30280;DHT22;17097;50.916;5.344;2023-07-30T12:05:40;22.60;99.90
30280;DHT22;17097;50.916;5.344;2023-07-30T12:08:13;22.40;99.90
30280;DHT22;17097;50.916;5.344;2023-07-30T12:10:47;22.30;99.90
30280;DHT22;17097;50.916;5.344;2023-07-30T12:13:18;22.10;99.90
30280;DHT22;17097;50.916;5.344;2023-07-30T12:15:54;21.80;99.90
30280;DHT22;17097;50.916;5.344;2023-07-30T12:18:21;21.50;99.90
30280;DHT22;17097;50.916;5.344;2023-07-30T12:20:47;21.60;99.90
30280;DHT22;17097;50.916;5.344;2023-07-30T12:23:17;21.60;99.90
30280;DHT22;17097;50.916;5.344;2023-07-30T12:25:42;22.00;99.90
30280;DHT22;17097;50.916;5.344;2023-07-30T12:28:08;22.50;99.90
30280;DHT22;17097;50.916;5.344;2023-07-30T12:30:34;22.50;99.90
30280;DHT22;17097;50.916;5.344;2023-07-30T12:33:02;22.40;99.90
30280;DHT22;17097;50.916;5.344;2023-07-30T12:35:29;22.50;99.90
30280;DHT22;17097;50.916;5.344;2023-07-30T12:37:55;22.50;99.90
30280;DHT22;17097;50.916;5.344;2023-07-30T12:40:20;22.60;99.90
30280;DHT22;17097;50.916;5.344;2023-07-30T12:42:48;22.80;99.90
30280;DHT22;17097;50.916;5.344;2023-07-30T12:45:14;23.10;99.90
30280;DHT22;17097;50.916;5.344;2023-07-30T12:47:40;23.40;99.90
30280;DHT22;17097;50.916;5.344;2023-07-30T12:50:10;23.40;99.90
30280;DHT22;17097;50.916;5.344;2023-07-30T12:52:36;23.80;99.90
30280;DHT22;17097;50.916;5.344;2023-07-30T12:55:02;24.00;99.90
30280;DHT22;17097;50.916;5.344;2023-07-30T12:57:29;24.40;99.90
30280;DHT22;17097;50.916;5.344;2023-07-30T12:59:57;24.50;99.90
30280;DHT22;17097;50.916;5.344;2023-07-30T13:02:23;24.80;99.90
30280;DHT22;17097;50.916;5.344;2023-07-30T13:04:51;24.90;99.90
30280;DHT22;17097;50.916;5.344;2023-07-30T13:07:16;24.80;99.90
30280;DHT22;17097;50.916;5.344;2023-07-30T13:09:42;24.80;99.90
30280;DHT22;17097;50.916;5.344;2023-07-30T13:12:08;24.60;99.90
30280;DHT22;17097;50.916;5.344;2023-07-30T13:14:33;24.10;99.90
30280;DHT22;17097;50.916;5.344;2023-07-30T13:16:59;24.20;99.90
30280;DHT22;17097;50.916;5.344;2023-07-30T13:19:25;24.10;99.90
30280;DHT22;17097;50.916;5.344;2023-07-30T13:21:51;24.20;99.90
30280;DHT22;17097;50.916;5.344;2023-07-30T13:24:16;24.20;99.90
30280;DHT22;17097;50.916;5.344;2023-07-30T13:26:42;24.40;99.90
30280;DHT22;17097;50.916;5.344;2023-07-30T13:29:08;24.40;99.90
30280;DHT22;17097;50.916;5.344;2023-07-30T13:31:33;24.70;99.90
30280;DHT22;17097;50.916;5.344;2023-07-30T13:34:01;24.60;99.90
30280;DHT22;17097;50.916;5.344;2023-07-30T13:36:27;24.60;99.90
30280;DHT22;17097;50.916;5.344;2023-07-30T13:38:52;24.80;99.90
30280;DHT22;17097;50.916;5.344;2023-07-30T13:41:18;25.00;99.90
30280;DHT22;17097;50.916;5.344;2023-07-30T13:43:46;25.10;99.90
30280;DHT22;17097;50.916;5.344;2023-07-30T13:46:14;25.10;99.90
30280;DHT22;17097;50.916;5.344;2023-07-30T13:48:40;24.90;99.90
30280;DHT22;17097;50.916;5.344;2023-07-30T13:51:05;24.90;99.90
30280;DHT22;17097;50.916;5.344;2023-07-30T13:53:31;25.00;99.90
30280;DHT22;17097;50.916;5.344;2023-07-30T13:56:00;24.90;99.90
30280;DHT22;17097;50.916;5.344;2023-07-30T13:58:26;24.70;99.90
30280;DHT22;17097;50.916;5.344;2023-07-30T14:00:53;24.30;99.90
30280;DHT22;17097;50.916;5.344;2023-07-30T14:03:20;24.20;99.90
30280;DHT22;17097;50.916;5.344;2023-07-30T14:05:46;24.10;99.90
30280;DHT22;17097;50.916;5.344;2023-07-30T14:08:14;24.20;99.90
30280;DHT22;17097;50.916;5.344;2023-07-30T14:10:39;24.30;99.90
30280;DHT22;17097;50.916;5.344;2023-07-30T14:13:05;24.60;99.90
30280;DHT22;17097;50.916;5.344;2023-07-30T14:15:31;24.80;99.90
30280;DHT22;17097;50.916;5.344;2023-07-30T14:17:58;24.70;99.90
30280;DHT22;17097;50.916;5.344;2023-07-30T14:20:24;24.70;99.90
30280;DHT22;17097;50.916;5.344;2023-07-30T14:22:49;24.60;99.90
30280;DHT22;17097;50.916;5.344;2023-07-30T14:25:17;24.70;99.90
30280;DHT22;17097;50.916;5.344;2023-07-30T14:27:42;24.90;99.90
30280;DHT22;17097;50.916;5.344;2023-07-30T14:30:10;25.00;99.90
30280;DHT22;17097;50.916;5.344;2023-07-30T14:32:36;25.00;99.90
30280;DHT22;17097;50.916;5.344;2023-07-30T14:35:02;24.90;99.90
30280;DHT22;17097;50.916;5.344;2023-07-30T14:37:32;25.20;99.90
30280;DHT22;17097;50.916;5.344;2023-07-30T14:39:57;25.10;99.90
30280;DHT22;17097;50.916;5.344;2023-07-30T14:42:23;24.90;99.90
30280;DHT22;17097;50.916;5.344;2023-07-30T14:44:51;25.30;99.90
30280;DHT22;17097;50.916;5.344;2023-07-30T14:47:16;25.40;99.90
30280;DHT22;17097;50.916;5.344;2023-07-30T14:49:43;25.20;99.90
30280;DHT22;17097;50.916;5.344;2023-07-30T14:52:08;25.10;99.90
30280;DHT22;17097;50.916;5.344;2023-07-30T14:54:34;25.20;98.90
30280;DHT22;17097;50.916;5.344;2023-07-30T14:57:00;25.50;99.90
30280;DHT22;17097;50.916;5.344;2023-07-30T14:59:26;25.80;99.90
30280;DHT22;17097;50.916;5.344;2023-07-30T15:01:51;25.60;98.30
30280;DHT22;17097;50.916;5.344;2023-07-30T15:04:17;25.70;97.80
30280;DHT22;17097;50.916;5.344;2023-07-30T15:06:42;25.50;96.20
30280;DHT22;17097;50.916;5.344;2023-07-30T15:09:08;25.20;95.90
30280;DHT22;17097;50.916;5.344;2023-07-30T15:11:34;25.00;96.40
30280;DHT22;17097;50.916;5.344;2023-07-30T15:13:59;24.80;97.30
30280;DHT22;17097;50.916;5.344;2023-07-30T15:16:25;24.60;98.00
30280;DHT22;17097;50.916;5.344;2023-07-30T15:18:50;24.40;98.00
30280;DHT22;17097;50.916;5.344;2023-07-30T15:21:16;24.50;99.60
30280;DHT22;17097;50.916;5.344;2023-07-30T15:23:43;24.60;98.80
30280;DHT22;17097;50.916;5.344;2023-07-30T15:26:11;24.20;98.40
30280;DHT22;17097;50.916;5.344;2023-07-30T15:28:37;23.80;99.80
30280;DHT22;17097;50.916;5.344;2023-07-30T15:31:05;23.90;99.90
30280;DHT22;17097;50.916;5.344;2023-07-30T15:33:33;23.80;99.90
30280;DHT22;17097;50.916;5.344;2023-07-30T15:36:03;23.90;99.90
30280;DHT22;17097;50.916;5.344;2023-07-30T15:38:30;23.90;99.90